sensor_id;sensor_type;location;lat;lon;timestamp;temperature;humidity
6078;DHT22;3067;49.470;10.394;2023-11-19T00:01:27;6.40;82.90
6078;DHT22;3067;49.470;10.394;2023-11-19T00:03:54;6.30;83.10
6078;DHT22;3067;49.470;10.394;2023-11-19T00:06:23;6.20;83.60
6078;DHT22;3067;49.470;10.394;2023-11-19T00:08:49;6.20;83.80
6078;DHT22;3067;49.470;10.394;2023-11-19T00:11:16;6.20;83.80
6078;DHT22;3067;49.470;10.394;2023-11-19T00:13:43;6.30;83.80
6078;DHT22;3067;49.470;10.394;2023-11-19T00:16:10;6.30;83.80
6078;DHT22;3067;49.470;10.394;2023-11-19T00:18:37;6.40;83.70
6078;DHT22;3067;49.470;10.394;2023-11-19T00:21:05;6.50;83.60
6078;DHT22;3067;49.470;10.394;2023-11-19T00:23:35;6.60;83.40
6078;DHT22;3067;49.470;10.394;2023-11-19T00:26:02;6.60;83.20
6078;DHT22;3067;49.470;10.394;2023-11-19T00:28:31;6.70;82.80
6078;DHT22;3067;49.470;10.394;2023-11-19T00:30:59;6.70;82.80
6078;DHT22;3067;49.470;10.394;2023-11-19T00:33:26;6.80;82.50
6078;DHT22;3067;49.470;10.394;2023-11-19T00:35:53;6.70;82.50
6078;DHT22;3067;49.470;10.394;2023-11-19T00:38:21;6.70;82.90
6078;DHT22;3067;49.470;10.394;2023-11-19T00:40:49;6.80;82.70
6078;DHT22;3067;49.470;10.394;2023-11-19T00:43:17;6.80;82.50
6078;DHT22;3067;49.470;10.394;2023-11-19T00:45:47;6.80;82.50
6078;DHT22;3067;49.470;10.394;2023-11-19T00:48:16;6.90;82.60
6078;DHT22;3067;49.470;10.394;2023-11-19T00:50:43;7.00;82.20
6078;DHT22;3067;49.470;10.394;2023-11-19T00:53:10;7.10;82.10
6078;DHT22;3067;49.470;10.394;2023-11-19T00:55:38;7.20;81.70
6078;DHT22;3067;49.470;10.394;2023-11-19T00:58:06;7.20;81.60
6078;DHT22;3067;49.470;10.394;2023-11-19T01:00:33;7.40;81.30
6078;DHT22;3067;49.470;10.394;2023-11-19T01:03:00;7.50;81.10
6078;DHT22;3067;49.470;10.394;2023-11-19T01:05:27;7.50;80.70
6078;DHT22;3067;49.470;10.394;2023-11-19T01:07:55;7.50;80.40
6078;DHT22;3067;49.470;10.394;2023-11-19T01:10:22;7.60;79.80
6078;DHT22;3067;49.470;10.394;2023-11-19T01:12:48;7.50;80.30
6078;DHT22;3067;49.470;10.394;2023-11-19T01:15:16;7.50;80.40
6078;DHT22;3067;49.470;10.394;2023-11-19T01:17:45;7.50;80.60
6078;DHT22;3067;49.470;10.394;2023-11-19T01:20:12;7.40;80.90
6078;DHT22;3067;49.470;10.394;2023-11-19T01:22:39;7.20;81.30
6078;DHT22;3067;49.470;10.394;2023-11-19T01:25:07;7.20;81.60
6078;DHT22;3067;49.470;10.394;2023-11-19T01:27:34;7.20;81.90
6078;DHT22;3067;49.470;10.394;2023-11-19T01:30:01;7.30;81.80
6078;DHT22;3067;49.470;10.394;2023-11-19T01:32:32;7.40;81.60
6078;DHT22;3067;49.470;10.394;2023-11-19T01:35:00;7.40;81.50
6078;DHT22;3067;49.470;10.394;2023-11-19T01:37:27;7.50;81.50
6078;DHT22;3067;49.470;10.394;2023-11-19T01:39:54;7.50;81.30
6078;DHT22;3067;49.470;10.394;2023-11-19T01:42:21;7.60;81.00
6078;DHT22;3067;49.470;10.394;2023-11-19T01:44:59;7.60;80.90
6078;DHT22;3067;49.470;10.394;2023-11-19T01:47:27;7.70;80.80
6078;DHT22;3067;49.470;10.394;2023-11-19T01:49:56;7.80;80.70
6078;DHT22;3067;49.470;10.394;2023-11-19T01:52:25;7.60;80.90
6078;DHT22;3067;49.470;10.394;2023-11-19T01:54:53;7.60;80.80
6078;DHT22;3067;49.470;10.394;2023-11-19T01:57:21;7.60;81.40
6078;DHT22;3067;49.470;10.394;2023-11-19T01:59:50;7.60;81.60
6078;DHT22;3067;49.470;10.394;2023-11-19T02:02:17;7.60;81.70
6078;DHT22;3067;49.470;10.394;2023-11-19T02:04:46;7.50;82.30
6078;DHT22;3067;49.470;10.394;2023-11-19T02:07:16;7.50;82.40
6078;DHT22;3067;49.470;10.394;2023-11-19T02:09:43;7.50;82.80
6078;DHT22;3067;49.470;10.394;2023-11-19T02:12:11;7.50;83.00
6078;DHT22;3067;49.470;10.394;2023-11-19T02:14:38;7.60;82.90
6078;DHT22;3067;49.470;10.394;2023-11-19T02:17:06;7.60;82.80
6078;DHT22;3067;49.470;10.394;2023-11-19T02:19:34;7.80;82.60
6078;DHT22;3067;49.470;10.394;2023-11-19T02:22:01;7.80;82.50
6078;DHT22;3067;49.470;10.394;2023-11-19T02:24:30;7.80;82.30
6078;DHT22;3067;49.470;10.394;2023-11-19T02:27:02;7.90;82.20
6078;DHT22;3067;49.470;10.394;2023-11-19T02:29:37;8.00;82.10
6078;DHT22;3067;49.470;10.394;2023-11-19T02:32:05;8.10;81.90
6078;DHT22;3067;49.470;10.394;2023-11-19T02:34:35;8.10;81.60
6078;DHT22;3067;49.470;10.394;2023-11-19T02:37:02;8.20;81.40
6078;DHT22;3067;49.470;10.394;2023-11-19T02:39:31;8.20;81.20
6078;DHT22;3067;49.470;10.394;2023-11-19T02:41:58;8.30;81.00
6078;DHT22;3067;49.470;10.394;2023-11-19T02:44:25;8.30;80.90
6078;DHT22;3067;49.470;10.394;2023-11-19T02:46:55;8.30;80.50
6078;DHT22;3067;49.470;10.394;2023-11-19T02:49:25;8.30;80.60
6078;DHT22;3067;49.470;10.394;2023-11-19T02:51:52;8.30;80.60
6078;DHT22;3067;49.470;10.394;2023-11-19T02:54:19;8.40;80.70
6078;DHT22;3067;49.470;10.394;2023-11-19T02:56:47;8.40;80.60
6078;DHT22;3067;49.470;10.394;2023-11-19T02:59:21;8.40;80.70
6078;DHT22;3067;49.470;10.394;2023-11-19T03:01:53;8.40;80.90
6078;DHT22;3067;49.470;10.394;2023-11-19T03:04:22;8.40;81.30
6078;DHT22;3067;49.470;10.394;2023-11-19T03:06:49;8.40;81.80
6078;DHT22;3067;49.470;10.394;2023-11-19T03:09:16;8.40;82.10
6078;DHT22;3067;49.470;10.394;2023-11-19T03:11:43;8.40;82.60
6078;DHT22;3067;49.470;10.394;2023-11-19T03:14:10;8.40;82.80
6078;DHT22;3067;49.470;10.394;2023-11-19T03:16:37;8.40;82.90
6078;DHT22;3067;49.470;10.394;2023-11-19T03:19:04;8.40;83.40
6078;DHT22;3067;49.470;10.394;2023-11-19T03:21:33;8.40;83.30
6078;DHT22;3067;49.470;10.394;2023-11-19T03:24:00;8.40;83.50
6078;DHT22;3067;49.470;10.394;2023-11-19T03:26:27;8.30;84.10
6078;DHT22;3067;49.470;10.394;2023-11-19T03:28:54;8.30;84.20
6078;DHT22;3067;49.470;10.394;2023-11-19T03:31:22;8.30;84.40
6078;DHT22;3067;49.470;10.394;2023-11-19T03:33:50;8.30;84.70
6078;DHT22;3067;49.470;10.394;2023-11-19T03:36:17;8.40;84.60
6078;DHT22;3067;49.470;10.394;2023-11-19T03:38:46;8.50;84.40
6078;DHT22;3067;49.470;10.394;2023-11-19T03:41:13;8.50;84.30
6078;DHT22;3067;49.470;10.394;2023-11-19T03:43:41;8.60;84.10
6078;DHT22;3067;49.470;10.394;2023-11-19T03:46:19;8.60;84.00
6078;DHT22;3067;49.470;10.394;2023-11-19T03:48:46;8.60;83.90
6078;DHT22;3067;49.470;10.394;2023-11-19T03:51:13;8.60;83.80
6078;DHT22;3067;49.470;10.394;2023-11-19T03:53:42;8.70;83.70
6078;DHT22;3067;49.470;10.394;2023-11-19T03:56:10;8.80;83.80
6078;DHT22;3067;49.470;10.394;2023-11-19T03:58:38;8.80;84.10
6078;DHT22;3067;49.470;10.394;2023-11-19T04:01:05;8.80;84.10
6078;DHT22;3067;49.470;10.394;2023-11-19T04:03:32;8.80;84.30
6078;DHT22;3067;49.470;10.394;2023-11-19T04:05:59;8.80;84.50
6078;DHT22;3067;49.470;10.394;2023-11-19T04:08:26;8.80;84.50
6078;DHT22;3067;49.470;10.394;2023-11-19T04:10:53;8.80;84.60
6078;DHT22;3067;49.470;10.394;2023-11-19T04:13:21;8.80;84.70
6078;DHT22;3067;49.470;10.394;2023-11-19T04:15:50;8.80;84.70
6078;DHT22;3067;49.470;10.394;2023-11-19T04:18:17;8.80;84.80
6078;DHT22;3067;49.470;10.394;2023-11-19T04:20:44;8.80;85.10
6078;DHT22;3067;49.470;10.394;2023-11-19T04:23:11;8.80;85.10
6078;DHT22;3067;49.470;10.394;2023-11-19T04:25:38;8.80;85.10
6078;DHT22;3067;49.470;10.394;2023-11-19T04:28:05;8.90;85.30
6078;DHT22;3067;49.470;10.394;2023-11-19T04:30:33;8.90;85.30
6078;DHT22;3067;49.470;10.394;2023-11-19T04:33:01;8.90;85.30
6078;DHT22;3067;49.470;10.394;2023-11-19T04:35:28;8.90;85.30
6078;DHT22;3067;49.470;10.394;2023-11-19T04:37:55;8.90;85.40
6078;DHT22;3067;49.470;10.394;2023-11-19T04:40:23;9.00;85.40
6078;DHT22;3067;49.470;10.394;2023-11-19T04:42:50;9.00;85.40
6078;DHT22;3067;49.470;10.394;2023-11-19T04:45:17;9.00;85.30
6078;DHT22;3067;49.470;10.394;2023-11-19T04:47:45;9.00;85.40
6078;DHT22;3067;49.470;10.394;2023-11-19T04:50:12;9.00;85.40
6078;DHT22;3067;49.470;10.394;2023-11-19T04:52:39;9.00;85.50
6078;DHT22;3067;49.470;10.394;2023-11-19T04:55:08;9.10;85.70
6078;DHT22;3067;49.470;10.394;2023-11-19T04:57:38;9.10;86.00
6078;DHT22;3067;49.470;10.394;2023-11-19T05:00:06;9.10;86.30
6078;DHT22;3067;49.470;10.394;2023-11-19T05:02:33;9.10;86.40
6078;DHT22;3067;49.470;10.394;2023-11-19T05:05:02;9.20;86.60
6078;DHT22;3067;49.470;10.394;2023-11-19T05:07:30;9.20;86.60
6078;DHT22;3067;49.470;10.394;2023-11-19T05:09:57;9.20;86.70
6078;DHT22;3067;49.470;10.394;2023-11-19T05:12:24;9.20;86.70
6078;DHT22;3067;49.470;10.394;2023-11-19T05:14:52;9.20;86.60
6078;DHT22;3067;49.470;10.394;2023-11-19T05:17:19;9.30;86.50
6078;DHT22;3067;49.470;10.394;2023-11-19T05:19:46;9.40;86.40
6078;DHT22;3067;49.470;10.394;2023-11-19T05:22:15;9.40;86.40
6078;DHT22;3067;49.470;10.394;2023-11-19T05:24:42;9.40;86.30
6078;DHT22;3067;49.470;10.394;2023-11-19T05:27:09;9.40;86.40
6078;DHT22;3067;49.470;10.394;2023-11-19T05:29:38;9.40;86.20
6078;DHT22;3067;49.470;10.394;2023-11-19T05:32:07;9.40;86.20
6078;DHT22;3067;49.470;10.394;2023-11-19T05:34:34;9.40;86.00
6078;DHT22;3067;49.470;10.394;2023-11-19T05:37:01;9.50;85.90
6078;DHT22;3067;49.470;10.394;2023-11-19T05:39:29;9.50;85.90
6078;DHT22;3067;49.470;10.394;2023-11-19T05:41:56;9.50;85.90
6078;DHT22;3067;49.470;10.394;2023-11-19T05:44:23;9.50;86.00
6078;DHT22;3067;49.470;10.394;2023-11-19T05:46:50;9.50;86.10
6078;DHT22;3067;49.470;10.394;2023-11-19T05:49:17;9.50;86.30
6078;DHT22;3067;49.470;10.394;2023-11-19T05:51:44;9.50;86.20
6078;DHT22;3067;49.470;10.394;2023-11-19T05:54:11;9.50;86.50
6078;DHT22;3067;49.470;10.394;2023-11-19T05:56:40;9.50;86.50
6078;DHT22;3067;49.470;10.394;2023-11-19T05:59:07;9.50;86.80
6078;DHT22;3067;49.470;10.394;2023-11-19T06:01:40;9.50;87.10
6078;DHT22;3067;49.470;10.394;2023-11-19T06:04:08;9.50;87.10
6078;DHT22;3067;49.470;10.394;2023-11-19T06:06:35;9.50;87.20
6078;DHT22;3067;49.470;10.394;2023-11-19T06:09:02;9.50;87.30
6078;DHT22;3067;49.470;10.394;2023-11-19T06:11:32;9.50;87.50
6078;DHT22;3067;49.470;10.394;2023-11-19T06:14:01;9.60;87.30
6078;DHT22;3067;49.470;10.394;2023-11-19T06:16:28;9.60;87.20
6078;DHT22;3067;49.470;10.394;2023-11-19T06:18:55;9.60;87.10
6078;DHT22;3067;49.470;10.394;2023-11-19T06:21:22;9.70;87.10
6078;DHT22;3067;49.470;10.394;2023-11-19T06:23:49;9.70;87.00
6078;DHT22;3067;49.470;10.394;2023-11-19T06:26:18;9.70;86.90
6078;DHT22;3067;49.470;10.394;2023-11-19T06:28:45;9.70;86.90
6078;DHT22;3067;49.470;10.394;2023-11-19T06:31:13;9.80;86.70
6078;DHT22;3067;49.470;10.394;2023-11-19T06:33:41;9.80;86.60
6078;DHT22;3067;49.470;10.394;2023-11-19T06:36:09;9.80;86.50
6078;DHT22;3067;49.470;10.394;2023-11-19T06:38:36;9.80;86.60
6078;DHT22;3067;49.470;10.394;2023-11-19T06:41:07;9.90;86.50
6078;DHT22;3067;49.470;10.394;2023-11-19T06:43:35;9.90;86.40
6078;DHT22;3067;49.470;10.394;2023-11-19T06:46:02;9.90;86.30
6078;DHT22;3067;49.470;10.394;2023-11-19T06:48:32;9.90;86.30
6078;DHT22;3067;49.470;10.394;2023-11-19T06:51:00;10.00;86.20
6078;DHT22;3067;49.470;10.394;2023-11-19T06:53:27;10.00;86.10
6078;DHT22;3067;49.470;10.394;2023-11-19T06:55:55;10.00;85.90
6078;DHT22;3067;49.470;10.394;2023-11-19T06:58:22;10.00;86.00
6078;DHT22;3067;49.470;10.394;2023-11-19T07:00:49;10.00;85.90
6078;DHT22;3067;49.470;10.394;2023-11-19T07:03:16;10.00;85.90
6078;DHT22;3067;49.470;10.394;2023-11-19T07:05:46;10.10;85.90
6078;DHT22;3067;49.470;10.394;2023-11-19T07:08:13;10.00;85.90
6078;DHT22;3067;49.470;10.394;2023-11-19T07:10:40;10.10;86.00
6078;DHT22;3067;49.470;10.394;2023-11-19T07:13:07;10.10;86.10
6078;DHT22;3067;49.470;10.394;2023-11-19T07:15:34;10.10;86.20
6078;DHT22;3067;49.470;10.394;2023-11-19T07:18:01;10.10;86.20
6078;DHT22;3067;49.470;10.394;2023-11-19T07:20:28;10.20;86.20
6078;DHT22;3067;49.470;10.394;2023-11-19T07:22:56;10.20;86.40
6078;DHT22;3067;49.470;10.394;2023-11-19T07:25:23;10.20;86.70
6078;DHT22;3067;49.470;10.394;2023-11-19T07:27:51;10.20;86.80
6078;DHT22;3067;49.470;10.394;2023-11-19T07:30:19;10.20;87.10
6078;DHT22;3067;49.470;10.394;2023-11-19T07:32:46;10.20;87.00
6078;DHT22;3067;49.470;10.394;2023-11-19T07:35:14;10.30;86.90
6078;DHT22;3067;49.470;10.394;2023-11-19T07:37:41;10.30;86.80
6078;DHT22;3067;49.470;10.394;2023-11-19T07:40:10;10.40;86.70
6078;DHT22;3067;49.470;10.394;2023-11-19T07:42:38;10.40;86.70
6078;DHT22;3067;49.470;10.394;2023-11-19T07:45:06;10.40;86.60
6078;DHT22;3067;49.470;10.394;2023-11-19T07:47:33;10.50;86.50
6078;DHT22;3067;49.470;10.394;2023-11-19T07:50:01;10.50;86.10
6078;DHT22;3067;49.470;10.394;2023-11-19T07:52:28;10.60;86.00
6078;DHT22;3067;49.470;10.394;2023-11-19T07:54:55;10.60;85.80
6078;DHT22;3067;49.470;10.394;2023-11-19T07:57:24;10.70;85.80
6078;DHT22;3067;49.470;10.394;2023-11-19T07:59:53;10.70;85.70
6078;DHT22;3067;49.470;10.394;2023-11-19T08:02:20;10.70;85.70
6078;DHT22;3067;49.470;10.394;2023-11-19T08:04:49;10.80;85.80
6078;DHT22;3067;49.470;10.394;2023-11-19T08:07:17;10.80;85.70
6078;DHT22;3067;49.470;10.394;2023-11-19T08:09:44;10.90;85.60
6078;DHT22;3067;49.470;10.394;2023-11-19T08:12:12;10.90;85.00
6078;DHT22;3067;49.470;10.394;2023-11-19T08:14:41;11.00;85.00
6078;DHT22;3067;49.470;10.394;2023-11-19T08:17:09;11.00;84.50
6078;DHT22;3067;49.470;10.394;2023-11-19T08:19:36;11.10;84.40
6078;DHT22;3067;49.470;10.394;2023-11-19T08:22:03;11.10;84.30
6078;DHT22;3067;49.470;10.394;2023-11-19T08:24:30;11.20;84.00
6078;DHT22;3067;49.470;10.394;2023-11-19T08:26:57;11.30;83.90
6078;DHT22;3067;49.470;10.394;2023-11-19T08:29:24;11.40;83.30
6078;DHT22;3067;49.470;10.394;2023-11-19T08:31:54;11.40;82.90
6078;DHT22;3067;49.470;10.394;2023-11-19T08:34:21;11.50;82.90
6078;DHT22;3067;49.470;10.394;2023-11-19T08:36:50;11.50;82.60
6078;DHT22;3067;49.470;10.394;2023-11-19T08:39:19;11.50;82.20
6078;DHT22;3067;49.470;10.394;2023-11-19T08:41:46;11.60;81.60
6078;DHT22;3067;49.470;10.394;2023-11-19T08:44:14;11.70;81.30
6078;DHT22;3067;49.470;10.394;2023-11-19T08:46:47;11.70;82.00
6078;DHT22;3067;49.470;10.394;2023-11-19T08:49:18;11.70;81.50
6078;DHT22;3067;49.470;10.394;2023-11-19T08:51:45;11.80;81.30
6078;DHT22;3067;49.470;10.394;2023-11-19T08:54:12;11.70;80.60
6078;DHT22;3067;49.470;10.394;2023-11-19T08:56:39;11.80;80.70
6078;DHT22;3067;49.470;10.394;2023-11-19T08:59:06;11.80;79.80
6078;DHT22;3067;49.470;10.394;2023-11-19T09:01:34;11.80;79.80
6078;DHT22;3067;49.470;10.394;2023-11-19T09:04:01;11.80;79.50
6078;DHT22;3067;49.470;10.394;2023-11-19T09:06:30;11.80;80.10
6078;DHT22;3067;49.470;10.394;2023-11-19T09:08:57;11.70;80.40
6078;DHT22;3067;49.470;10.394;2023-11-19T09:11:28;11.80;80.00
6078;DHT22;3067;49.470;10.394;2023-11-19T09:13:55;11.90;79.90
6078;DHT22;3067;49.470;10.394;2023-11-19T09:16:22;11.90;80.00
6078;DHT22;3067;49.470;10.394;2023-11-19T09:18:50;12.00;79.50
6078;DHT22;3067;49.470;10.394;2023-11-19T09:21:17;12.10;78.90
6078;DHT22;3067;49.470;10.394;2023-11-19T09:23:45;12.20;78.50
6078;DHT22;3067;49.470;10.394;2023-11-19T09:26:15;12.30;78.70
6078;DHT22;3067;49.470;10.394;2023-11-19T09:28:42;12.30;77.50
6078;DHT22;3067;49.470;10.394;2023-11-19T09:31:15;12.30;77.90
6078;DHT22;3067;49.470;10.394;2023-11-19T09:33:42;12.30;78.00
6078;DHT22;3067;49.470;10.394;2023-11-19T09:36:11;12.30;77.70
6078;DHT22;3067;49.470;10.394;2023-11-19T09:38:39;12.30;77.70
6078;DHT22;3067;49.470;10.394;2023-11-19T09:41:09;12.30;77.30
6078;DHT22;3067;49.470;10.394;2023-11-19T09:43:38;12.30;77.70
6078;DHT22;3067;49.470;10.394;2023-11-19T09:46:07;12.30;77.70
6078;DHT22;3067;49.470;10.394;2023-11-19T09:48:38;12.30;77.80
6078;DHT22;3067;49.470;10.394;2023-11-19T09:51:06;12.30;77.80
6078;DHT22;3067;49.470;10.394;2023-11-19T09:53:34;12.30;78.10
6078;DHT22;3067;49.470;10.394;2023-11-19T09:56:02;12.30;78.50
6078;DHT22;3067;49.470;10.394;2023-11-19T09:58:31;12.20;78.70
6078;DHT22;3067;49.470;10.394;2023-11-19T10:00:58;12.20;79.70
6078;DHT22;3067;49.470;10.394;2023-11-19T10:03:27;12.00;80.70
6078;DHT22;3067;49.470;10.394;2023-11-19T10:05:55;11.90;81.50
6078;DHT22;3067;49.470;10.394;2023-11-19T10:08:22;11.90;82.10
6078;DHT22;3067;49.470;10.394;2023-11-19T10:10:49;11.70;82.80
6078;DHT22;3067;49.470;10.394;2023-11-19T10:13:19;11.70;82.80
6078;DHT22;3067;49.470;10.394;2023-11-19T10:15:47;11.80;82.80
6078;DHT22;3067;49.470;10.394;2023-11-19T10:18:15;11.90;82.10
6078;DHT22;3067;49.470;10.394;2023-11-19T10:20:42;12.10;80.60
6078;DHT22;3067;49.470;10.394;2023-11-19T10:23:10;12.20;80.00
6078;DHT22;3067;49.470;10.394;2023-11-19T10:25:37;12.30;78.70
6078;DHT22;3067;49.470;10.394;2023-11-19T10:28:04;12.50;77.70
6078;DHT22;3067;49.470;10.394;2023-11-19T10:30:31;12.50;77.90
6078;DHT22;3067;49.470;10.394;2023-11-19T10:33:07;12.50;76.50
6078;DHT22;3067;49.470;10.394;2023-11-19T10:35:36;12.50;77.10
6078;DHT22;3067;49.470;10.394;2023-11-19T10:38:13;12.60;76.80
6078;DHT22;3067;49.470;10.394;2023-11-19T10:40:41;12.60;75.40
6078;DHT22;3067;49.470;10.394;2023-11-19T10:43:08;12.50;76.10
6078;DHT22;3067;49.470;10.394;2023-11-19T10:45:35;12.60;75.70
6078;DHT22;3067;49.470;10.394;2023-11-19T10:48:04;12.60;75.50
6078;DHT22;3067;49.470;10.394;2023-11-19T10:50:34;12.70;75.80
6078;DHT22;3067;49.470;10.394;2023-11-19T10:53:02;12.70;76.00
6078;DHT22;3067;49.470;10.394;2023-11-19T10:55:31;12.80;75.00
6078;DHT22;3067;49.470;10.394;2023-11-19T10:58:00;13.00;73.80
6078;DHT22;3067;49.470;10.394;2023-11-19T11:00:29;13.00;74.50
6078;DHT22;3067;49.470;10.394;2023-11-19T11:03:01;13.10;73.90
6078;DHT22;3067;49.470;10.394;2023-11-19T11:05:33;13.10;74.00
6078;DHT22;3067;49.470;10.394;2023-11-19T11:08:01;13.30;73.70
6078;DHT22;3067;49.470;10.394;2023-11-19T11:10:31;13.40;74.10
6078;DHT22;3067;49.470;10.394;2023-11-19T11:13:03;13.50;72.60
6078;DHT22;3067;49.470;10.394;2023-11-19T11:15:31;13.50;72.20
6078;DHT22;3067;49.470;10.394;2023-11-19T11:18:00;13.60;72.60
6078;DHT22;3067;49.470;10.394;2023-11-19T11:20:29;13.60;73.20
6078;DHT22;3067;49.470;10.394;2023-11-19T11:26:00;13.50;70.90
6078;DHT22;3067;49.470;10.394;2023-11-19T11:28:35;13.50;71.60
6078;DHT22;3067;49.470;10.394;2023-11-19T11:31:15;13.60;71.40
6078;DHT22;3067;49.470;10.394;2023-11-19T11:34:11;13.60;70.90
6078;DHT22;3067;49.470;10.394;2023-11-19T11:36:48;13.50;70.40
6078;DHT22;3067;49.470;10.394;2023-11-19T11:39:22;13.30;70.00
6078;DHT22;3067;49.470;10.394;2023-11-19T11:45:00;13.00;70.80
6078;DHT22;3067;49.470;10.394;2023-11-19T11:48:08;12.90;71.60
6078;DHT22;3067;49.470;10.394;2023-11-19T11:50:47;12.90;71.70
6078;DHT22;3067;49.470;10.394;2023-11-19T11:53:19;12.80;72.00
6078;DHT22;3067;49.470;10.394;2023-11-19T11:55:59;12.80;72.10
6078;DHT22;3067;49.470;10.394;2023-11-19T11:58:36;12.80;71.70
6078;DHT22;3067;49.470;10.394;2023-11-19T12:01:05;12.90;71.90
6078;DHT22;3067;49.470;10.394;2023-11-19T12:03:32;13.00;70.90
6078;DHT22;3067;49.470;10.394;2023-11-19T12:06:00;13.00;69.40
6078;DHT22;3067;49.470;10.394;2023-11-19T12:08:29;13.00;69.20
6078;DHT22;3067;49.470;10.394;2023-11-19T12:11:01;13.10;69.30
6078;DHT22;3067;49.470;10.394;2023-11-19T12:13:57;13.30;68.60
6078;DHT22;3067;49.470;10.394;2023-11-19T12:16:28;13.60;67.90
6078;DHT22;3067;49.470;10.394;2023-11-19T12:18:56;13.60;67.00
6078;DHT22;3067;49.470;10.394;2023-11-19T12:21:30;13.60;66.50
6078;DHT22;3067;49.470;10.394;2023-11-19T12:23:59;13.60;67.00
6078;DHT22;3067;49.470;10.394;2023-11-19T12:26:38;13.80;66.10
6078;DHT22;3067;49.470;10.394;2023-11-19T12:29:06;14.10;66.80
6078;DHT22;3067;49.470;10.394;2023-11-19T12:31:33;14.70;64.10
6078;DHT22;3067;49.470;10.394;2023-11-19T12:34:07;15.20;62.20
6078;DHT22;3067;49.470;10.394;2023-11-19T12:36:38;15.60;59.10
6078;DHT22;3067;49.470;10.394;2023-11-19T12:39:06;15.40;58.00
6078;DHT22;3067;49.470;10.394;2023-11-19T12:41:52;14.90;58.80
6078;DHT22;3067;49.470;10.394;2023-11-19T12:44:20;14.40;59.90
6078;DHT22;3067;49.470;10.394;2023-11-19T12:46:58;14.10;60.50
6078;DHT22;3067;49.470;10.394;2023-11-19T12:49:25;13.90;62.10
6078;DHT22;3067;49.470;10.394;2023-11-19T12:51:53;13.80;63.10
6078;DHT22;3067;49.470;10.394;2023-11-19T12:54:20;13.80;63.60
6078;DHT22;3067;49.470;10.394;2023-11-19T12:56:53;13.90;64.70
6078;DHT22;3067;49.470;10.394;2023-11-19T12:59:20;14.60;63.70
6078;DHT22;3067;49.470;10.394;2023-11-19T13:01:56;15.00;61.50
6078;DHT22;3067;49.470;10.394;2023-11-19T13:04:28;15.00;61.50
6078;DHT22;3067;49.470;10.394;2023-11-19T13:06:56;14.80;62.70
6078;DHT22;3067;49.470;10.394;2023-11-19T13:09:23;14.50;63.20
6078;DHT22;3067;49.470;10.394;2023-11-19T13:11:53;14.20;64.70
6078;DHT22;3067;49.470;10.394;2023-11-19T13:14:21;13.90;65.70
6078;DHT22;3067;49.470;10.394;2023-11-19T13:16:48;13.80;65.90
6078;DHT22;3067;49.470;10.394;2023-11-19T13:19:15;13.70;66.80
6078;DHT22;3067;49.470;10.394;2023-11-19T13:21:44;13.90;66.10
6078;DHT22;3067;49.470;10.394;2023-11-19T13:24:12;13.90;66.20
6078;DHT22;3067;49.470;10.394;2023-11-19T13:26:40;14.30;65.20
6078;DHT22;3067;49.470;10.394;2023-11-19T13:29:08;14.80;62.80
6078;DHT22;3067;49.470;10.394;2023-11-19T13:31:36;14.70;62.90
6078;DHT22;3067;49.470;10.394;2023-11-19T13:34:04;14.40;63.50
6078;DHT22;3067;49.470;10.394;2023-11-19T13:36:32;14.10;64.10
6078;DHT22;3067;49.470;10.394;2023-11-19T13:39:00;13.90;64.00
6078;DHT22;3067;49.470;10.394;2023-11-19T13:41:27;13.70;64.50
6078;DHT22;3067;49.470;10.394;2023-11-19T13:43:54;13.60;64.40
6078;DHT22;3067;49.470;10.394;2023-11-19T13:46:22;13.50;64.80
6078;DHT22;3067;49.470;10.394;2023-11-19T13:48:49;13.50;64.00
6078;DHT22;3067;49.470;10.394;2023-11-19T13:51:16;13.50;63.70
6078;DHT22;3067;49.470;10.394;2023-11-19T13:53:44;13.50;64.20
6078;DHT22;3067;49.470;10.394;2023-11-19T13:56:11;13.50;63.20
6078;DHT22;3067;49.470;10.394;2023-11-19T13:58:38;13.40;61.80
6078;DHT22;3067;49.470;10.394;2023-11-19T14:01:06;13.40;62.50
6078;DHT22;3067;49.470;10.394;2023-11-19T14:03:35;13.30;62.70
6078;DHT22;3067;49.470;10.394;2023-11-19T14:06:02;13.30;62.50
6078;DHT22;3067;49.470;10.394;2023-11-19T14:08:29;13.30;61.90
6078;DHT22;3067;49.470;10.394;2023-11-19T14:10:56;13.30;61.90
6078;DHT22;3067;49.470;10.394;2023-11-19T14:13:23;13.30;61.90
6078;DHT22;3067;49.470;10.394;2023-11-19T14:15:51;13.30;61.90
6078;DHT22;3067;49.470;10.394;2023-11-19T14:18:18;13.30;62.00
6078;DHT22;3067;49.470;10.394;2023-11-19T14:20:46;13.30;62.70
6078;DHT22;3067;49.470;10.394;2023-11-19T14:23:13;13.30;62.80
6078;DHT22;3067;49.470;10.394;2023-11-19T14:25:40;13.30;62.70
6078;DHT22;3067;49.470;10.394;2023-11-19T14:28:07;13.30;62.90
6078;DHT22;3067;49.470;10.394;2023-11-19T14:30:35;13.20;63.50
6078;DHT22;3067;49.470;10.394;2023-11-19T14:33:02;13.10;64.00
6078;DHT22;3067;49.470;10.394;2023-11-19T14:35:30;13.10;63.90
6078;DHT22;3067;49.470;10.394;2023-11-19T14:37:59;13.00;64.50
6078;DHT22;3067;49.470;10.394;2023-11-19T14:40:30;13.00;64.80
6078;DHT22;3067;49.470;10.394;2023-11-19T14:42:57;13.00;64.80
6078;DHT22;3067;49.470;10.394;2023-11-19T14:45:24;12.90;64.10
6078;DHT22;3067;49.470;10.394;2023-11-19T14:47:51;12.90;64.50
6078;DHT22;3067;49.470;10.394;2023-11-19T14:50:19;12.90;65.20
6078;DHT22;3067;49.470;10.394;2023-11-19T14:52:46;12.90;65.10
6078;DHT22;3067;49.470;10.394;2023-11-19T14:55:15;12.90;65.70
6078;DHT22;3067;49.470;10.394;2023-11-19T14:57:42;12.90;65.80
6078;DHT22;3067;49.470;10.394;2023-11-19T15:00:10;12.90;66.00
6078;DHT22;3067;49.470;10.394;2023-11-19T15:02:40;12.80;65.90
6078;DHT22;3067;49.470;10.394;2023-11-19T15:05:08;12.80;66.20
6078;DHT22;3067;49.470;10.394;2023-11-19T15:07:36;12.80;65.80
6078;DHT22;3067;49.470;10.394;2023-11-19T15:10:04;12.70;66.00
6078;DHT22;3067;49.470;10.394;2023-11-19T15:12:36;12.70;65.80
6078;DHT22;3067;49.470;10.394;2023-11-19T15:15:07;12.60;66.00
6078;DHT22;3067;49.470;10.394;2023-11-19T15:17:35;12.60;66.10
6078;DHT22;3067;49.470;10.394;2023-11-19T15:20:03;12.60;66.20
6078;DHT22;3067;49.470;10.394;2023-11-19T15:22:30;12.50;66.40
6078;DHT22;3067;49.470;10.394;2023-11-19T15:24:58;12.50;66.20
6078;DHT22;3067;49.470;10.394;2023-11-19T15:27:25;12.50;66.40
6078;DHT22;3067;49.470;10.394;2023-11-19T15:29:53;12.50;66.50
6078;DHT22;3067;49.470;10.394;2023-11-19T15:32:20;12.50;66.50
6078;DHT22;3067;49.470;10.394;2023-11-19T15:34:47;12.50;66.50
6078;DHT22;3067;49.470;10.394;2023-11-19T15:37:14;12.50;66.50
6078;DHT22;3067;49.470;10.394;2023-11-19T15:39:41;12.50;66.40
6078;DHT22;3067;49.470;10.394;2023-11-19T15:42:08;12.50;66.60
6078;DHT22;3067;49.470;10.394;2023-11-19T15:44:37;12.40;66.80
6078;DHT22;3067;49.470;10.394;2023-11-19T15:47:06;12.40;66.90
6078;DHT22;3067;49.470;10.394;2023-11-19T15:49:34;12.40;66.90
6078;DHT22;3067;49.470;10.394;2023-11-19T15:52:02;12.30;67.10
6078;DHT22;3067;49.470;10.394;2023-11-19T15:54:30;12.20;67.20
6078;DHT22;3067;49.470;10.394;2023-11-19T15:56:57;12.20;67.40
6078;DHT22;3067;49.470;10.394;2023-11-19T15:59:24;12.20;67.50
6078;DHT22;3067;49.470;10.394;2023-11-19T16:01:51;12.10;67.80
6078;DHT22;3067;49.470;10.394;2023-11-19T16:04:20;12.10;68.00
6078;DHT22;3067;49.470;10.394;2023-11-19T16:06:47;12.00;68.40